Piper — WDE6779 — position and weather

sailwx.info

Track history (hours):
 
Tides and Currents Weather Stations Pressure Air Temp Water Temp Dewpoint Dewpoint Depression Visibility Wind Speed Wind Dir Waves Ship Positions

Piper

Owner: ADS MARINE, LLC, MORGAN CITY, LA. More information available from US FCC via Universal Licensing System and Coast Guard Vessel Documentation Center.

Last reported at 2016-Aug-23 05:33 UTC. Time now 2016-Aug-28 08:43 UTC.
Position N 29°28' W 092°19'.

Length 40 m; draft 3 m.

Type: Cargo ship. MMSI: 367384720.

Date/timePositionNaut miles runAvg speedWind from/ knotsBaromVisibWave heightAir tempDewpointWater temp
2016-Aug-23 05:33N 29°28' W 092°19'6 6.4
2016-Aug-23 04:33N 29°34' W 092°18'7 6.8
2016-Aug-23 03:33N 29°40' W 092°15'7 6.6
2016-Aug-23 02:33N 29°46' W 092°11'1 0.9
2016-Aug-23 01:33N 29°47' W 092°11'0 0.0
2016-Aug-23 00:33N 29°47' W 092°11'0 0.0
2016-Aug-22 23:33N 29°47' W 092°11'0 0.0
2016-Aug-22 22:33N 29°47' W 092°11'1 0.8
2016-Aug-22 21:33N 29°47' W 092°10'0 0.0
2016-Aug-22 20:33N 29°47' W 092°10'0 0.0
2016-Aug-22 19:33N 29°47' W 092°10'0 0.0
2016-Aug-22 18:33N 29°47' W 092°10'0 0.0
2016-Aug-22 17:33N 29°47' W 092°10'0 0.0
2016-Aug-22 16:33N 29°47' W 092°10'0 0.0
2016-Aug-22 15:33N 29°47' W 092°10'0 0.0
2016-Aug-22 14:33N 29°47' W 092°10'0 0.0
2016-Aug-22 13:33N 29°47' W 092°10'0 0.0
2016-Aug-22 12:33N 29°47' W 092°10'1 0.8
2016-Aug-22 11:33N 29°47' W 092°11'0 0.0
2016-Aug-22 10:33N 29°47' W 092°11'4 3.8
2016-Aug-22 09:33N 29°44' W 092°14'8 8.1
2016-Aug-22 08:33N 29°36' W 092°17'8 7.1
2016-Aug-22 07:27N 29°29' W 092°19'  
2016-Aug-16 09:05N 29°27' W 092°20'4 7.6
2016-Aug-16 08:33N 29°31' W 092°19'5 5.1
2016-Aug-16 07:33N 29°36' W 092°17'12 4.0
2016-Aug-16 04:33N 29°47' W 092°11'0 0.1
2016-Aug-16 03:33N 29°47' W 092°11'1 0.8
2016-Aug-16 02:33N 29°47' W 092°10'0 0.2
2016-Aug-16 01:33N 29°47' W 092°10'0 0.0
2016-Aug-16 00:33N 29°47' W 092°10'0 0.0
2016-Aug-15 23:33N 29°47' W 092°10'0 0.0
2016-Aug-15 22:33N 29°47' W 092°10'0 0.0
2016-Aug-15 21:33N 29°47' W 092°10'0 0.0
2016-Aug-15 20:33N 29°47' W 092°10'0 0.0
2016-Aug-15 19:33N 29°47' W 092°10'1 0.8
2016-Aug-15 18:33N 29°47' W 092°11'0 0.0
2016-Aug-15 17:33N 29°47' W 092°11'1 1.4
2016-Aug-15 16:33N 29°46' W 092°12'7 7.4
2016-Aug-15 15:34N 29°39' W 092°16'  
Track history (hours):
 
Tides and Currents Weather Stations Pressure Air Temp Water Temp Dewpoint Dewpoint Depression Visibility Wind Speed Wind Dir Waves Ship Positions

Piper

Owner: ADS MARINE, LLC, MORGAN CITY, LA. More information available from US FCC via Universal Licensing System and Coast Guard Vessel Documentation Center.

Last reported at 2016-Aug-23 05:33 UTC. Time now 2016-Aug-28 08:43 UTC.
Position N 29°28' W 092°19'.

Length 40 m; draft 3 m.

Type: Cargo ship. MMSI: 367384720.

Date/timePositionNaut miles runAvg speedWind from/ knotsBaromVisibWave heightAir tempDewpointWater temp
2016-Aug-23 05:33N 29°28' W 092°19'6 6.4
2016-Aug-23 04:33N 29°34' W 092°18'7 6.8
2016-Aug-23 03:33N 29°40' W 092°15'7 6.6
2016-Aug-23 02:33N 29°46' W 092°11'1 0.9
2016-Aug-23 01:33N 29°47' W 092°11'0 0.0
2016-Aug-23 00:33N 29°47' W 092°11'0 0.0
2016-Aug-22 23:33N 29°47' W 092°11'0 0.0
2016-Aug-22 22:33N 29°47' W 092°11'1 0.8
2016-Aug-22 21:33N 29°47' W 092°10'0 0.0
2016-Aug-22 20:33N 29°47' W 092°10'0 0.0
2016-Aug-22 19:33N 29°47' W 092°10'0 0.0
2016-Aug-22 18:33N 29°47' W 092°10'0 0.0
2016-Aug-22 17:33N 29°47' W 092°10'0 0.0
2016-Aug-22 16:33N 29°47' W 092°10'0 0.0
2016-Aug-22 15:33N 29°47' W 092°10'0 0.0
2016-Aug-22 14:33N 29°47' W 092°10'0 0.0
2016-Aug-22 13:33N 29°47' W 092°10'0 0.0
2016-Aug-22 12:33N 29°47' W 092°10'1 0.8
2016-Aug-22 11:33N 29°47' W 092°11'0 0.0
2016-Aug-22 10:33N 29°47' W 092°11'4 3.8
2016-Aug-22 09:33N 29°44' W 092°14'8 8.1
2016-Aug-22 08:33N 29°36' W 092°17'8 7.1
2016-Aug-22 07:27N 29°29' W 092°19'  
2016-Aug-16 09:05N 29°27' W 092°20'4 7.6
2016-Aug-16 08:33N 29°31' W 092°19'5 5.1
2016-Aug-16 07:33N 29°36' W 092°17'12 4.0
2016-Aug-16 04:33N 29°47' W 092°11'0 0.1
2016-Aug-16 03:33N 29°47' W 092°11'1 0.8
2016-Aug-16 02:33N 29°47' W 092°10'0 0.2
2016-Aug-16 01:33N 29°47' W 092°10'0 0.0
2016-Aug-16 00:33N 29°47' W 092°10'0 0.0
2016-Aug-15 23:33N 29°47' W 092°10'0 0.0
2016-Aug-15 22:33N 29°47' W 092°10'0 0.0
2016-Aug-15 21:33N 29°47' W 092°10'0 0.0
2016-Aug-15 20:33N 29°47' W 092°10'0 0.0
2016-Aug-15 19:33N 29°47' W 092°10'1 0.8
2016-Aug-15 18:33N 29°47' W 092°11'0 0.0
2016-Aug-15 17:33N 29°47' W 092°11'1 1.4
2016-Aug-15 16:33N 29°46' W 092°12'7 7.4
2016-Aug-15 15:34N 29°39' W 092°16'  

Dump ship's entire track history